createdAt,value
2022-12-28T00:03:58.699Z,77.58876
2022-12-28T00:09:00.516Z,79.71588
2022-12-28T00:14:02.396Z,81.23652
2022-12-28T00:19:04.220Z,83.62874
2022-12-28T00:24:05.873Z,81.72495
2022-12-28T00:29:07.691Z,82.69464
2022-12-28T00:34:09.387Z,84.00947
2022-12-28T00:39:11.155Z,80.84664
2022-12-28T00:44:12.868Z,79.54094
2022-12-28T00:49:14.567Z,76.11196
2022-12-28T00:54:16.195Z,74.80026
2022-12-28T00:59:17.828Z,78.68531
2022-12-28T01:04:19.503Z,81.99208
2022-12-28T01:09:21.155Z,79.44751
2022-12-28T01:14:22.814Z,85.11985
2022-12-28T01:19:24.457Z,88.11595
2022-12-28T01:24:26.112Z,87.3852
2022-12-28T01:29:27.795Z,82.56533
2022-12-28T01:34:29.448Z,79.50367
2022-12-28T01:39:31.120Z,78.36903
2022-12-28T01:44:32.768Z,78.06454
2022-12-28T01:49:34.446Z,84.05595
2022-12-28T01:54:36.169Z,78.16769
2022-12-28T01:59:37.921Z,80.07057
2022-12-28T02:04:39.579Z,77.38281
2022-12-28T02:09:41.235Z,77.47004
2022-12-28T02:14:42.886Z,82.72425
2022-12-28T02:19:44.512Z,85.83231
2022-12-28T02:24:46.526Z,79.6703
2022-12-28T02:29:48.234Z,83.82523
2022-12-28T02:34:49.875Z,83.48505
2022-12-28T02:39:51.536Z,85.9359
2022-12-28T02:44:53.184Z,89.76315
2022-12-28T02:49:54.816Z,89.30172
2022-12-28T02:54:56.479Z,88.0386
2022-12-28T02:59:58.167Z,79.33683
2022-12-28T03:04:59.812Z,79.44126
2022-12-28T03:10:01.512Z,80.19883
2022-12-28T03:15:03.465Z,79.57219
2022-12-28T03:20:05.287Z,80.13698
2022-12-28T03:25:06.981Z,82.95641
2022-12-28T03:30:08.626Z,78.95995
2022-12-28T03:35:10.301Z,81.54998
2022-12-28T03:40:12.001Z,81.06599
2022-12-28T03:45:13.881Z,84.33904
2022-12-28T03:50:46.315Z,86.38599
2022-12-28T03:55:47.982Z,85.27942
2022-12-28T04:00:49.863Z,80.99394
2022-12-28T04:05:51.638Z,81.66279
2022-12-28T04:10:53.266Z,78.87919
2022-12-28T04:15:54.987Z,81.55543
2022-12-28T04:20:56.666Z,79.64092
2022-12-28T04:25:58.301Z,78.36657
2022-12-28T04:31:00.032Z,81.47369
2022-12-28T04:36:01.653Z,86.02094
2022-12-28T04:41:03.283Z,87.9457
2022-12-28T04:46:04.947Z,81.10408
2022-12-28T04:51:06.590Z,79.66707
2022-12-28T04:56:08.299Z,80.72076
2022-12-28T05:01:10.044Z,78.44098
2022-12-28T05:06:11.775Z,78.77765
2022-12-28T05:11:13.861Z,77.69978
2022-12-28T05:16:15.526Z,80.25311
2022-12-28T05:21:17.264Z,81.29757
2022-12-28T05:26:18.910Z,78.50815
2022-12-28T05:31:20.606Z,78.7991
2022-12-28T05:36:22.341Z,76.99927
2022-12-28T05:41:24.113Z,79.60622
2022-12-28T05:46:25.777Z,80.22046
2022-12-28T05:51:27.441Z,78.36851
2022-12-28T05:56:29.231Z,80.69435
2022-12-28T06:01:31.016Z,82.80166
2022-12-28T06:06:33.026Z,83.46452
2022-12-28T06:11:34.701Z,80.59109
2022-12-28T06:16:36.351Z,81.27222
2022-12-28T06:21:38.060Z,78.1558
2022-12-28T06:26:39.775Z,79.13067
2022-12-28T06:31:41.504Z,80.62908
2022-12-28T06:36:43.207Z,81.68302
2022-12-28T06:41:44.862Z,81.06756
2022-12-28T06:46:46.534Z,79.0533
2022-12-28T06:51:48.405Z,78.97874
2022-12-28T06:56:50.021Z,78.41328
2022-12-28T07:01:51.757Z,79.24933
2022-12-28T07:06:53.461Z,78.61408
2022-12-28T07:11:55.083Z,80.10904
2022-12-28T07:16:56.777Z,77.42053
2022-12-28T07:21:58.378Z,78.49749
2022-12-28T07:26:59.994Z,79.7746
2022-12-28T07:32:01.715Z,78.98422
2022-12-28T07:37:03.369Z,80.23149
2022-12-28T07:42:05.019Z,81.00322
2022-12-28T07:47:06.619Z,77.99446
2022-12-28T07:52:08.505Z,80.77493
2022-12-28T07:57:10.168Z,78.18047
2022-12-28T08:02:11.939Z,78.01658
2022-12-28T08:07:13.798Z,79.09204
2022-12-28T08:12:15.455Z,78.87106
2022-12-28T08:17:21.230Z,78.29795
2022-12-28T08:22:23.279Z,79.81003
2022-12-28T08:27:24.939Z,81.26129
2022-12-28T08:32:26.592Z,81.18275
2022-12-28T08:37:28.235Z,80.85435
2022-12-28T08:42:29.917Z,82.08598
2022-12-28T08:47:31.594Z,80.78581
2022-12-28T08:52:33.273Z,80.52665
2022-12-28T08:57:34.889Z,79.44114
2022-12-28T09:02:36.912Z,82.68654
2022-12-28T09:07:38.680Z,79.96808
2022-12-28T09:12:40.363Z,78.29827
2022-12-28T09:17:41.976Z,79.31508
2022-12-28T09:22:43.579Z,80.05942
2022-12-28T09:27:45.188Z,80.70488
2022-12-28T09:32:46.760Z,81.48387
2022-12-28T09:37:48.473Z,79.71108
2022-12-28T09:42:50.090Z,78.85694
2022-12-28T09:47:51.778Z,79.32318
2022-12-28T09:52:53.465Z,80.44682
2022-12-28T09:57:55.299Z,80.34962
2022-12-28T10:02:57.040Z,79.40741
2022-12-28T10:07:58.732Z,81.30983
2022-12-28T10:13:00.622Z,80.47351
2022-12-28T10:18:02.383Z,80.67479
2022-12-28T10:23:03.983Z,80.57238
2022-12-28T10:28:05.698Z,79.72669
2022-12-28T10:33:11.068Z,79.28055
2022-12-28T10:38:15.430Z,78.84559
2022-12-28T10:43:20.044Z,79.03432
2022-12-28T10:48:21.698Z,79.88704
2022-12-28T10:53:23.385Z,80.04118
2022-12-28T11:03:21.955Z,78.97558
2022-12-28T11:08:23.982Z,81.5904
2022-12-28T11:13:25.652Z,85.58175
2022-12-28T11:18:28.374Z,91.15303
2022-12-28T11:23:32.639Z,93.12413
2022-12-28T11:28:34.324Z,93.47288
2022-12-28T11:33:35.973Z,93.03967
2022-12-28T11:38:37.596Z,93.99905
2022-12-28T11:43:39.265Z,93.60816
2022-12-28T11:48:40.903Z,92.48392
2022-12-28T11:53:42.540Z,92.1083
2022-12-28T11:58:44.396Z,88.3742
2022-12-28T12:03:46.104Z,85.29164
2022-12-28T12:08:47.861Z,86.48542
2022-12-28T12:13:49.547Z,89.65281
2022-12-28T12:18:51.179Z,88.41
2022-12-28T12:23:52.834Z,89.43943
2022-12-28T12:28:54.454Z,86.8637
2022-12-28T12:33:56.217Z,84.15245
2022-12-28T12:38:57.872Z,84.85047
2022-12-28T12:43:59.575Z,83.32163
2022-12-28T12:49:01.227Z,87.53681
2022-12-28T12:54:02.870Z,86.26034
2022-12-28T12:59:04.531Z,81.90925
2022-12-28T13:04:06.229Z,80.22317
2022-12-28T13:09:07.882Z,79.56079
2022-12-28T13:14:09.513Z,80.20753
2022-12-28T13:19:11.254Z,81.59036
2022-12-28T13:24:12.893Z,81.83181
2022-12-28T13:29:14.518Z,82.20233
2022-12-28T13:34:16.244Z,82.07898
2022-12-28T13:39:17.946Z,80.56756
2022-12-28T13:44:19.575Z,82.57395
2022-12-28T13:49:21.445Z,83.05101
2022-12-28T13:54:23.113Z,80.88386
2022-12-28T13:59:25.147Z,82.1953
2022-12-28T14:04:51.698Z,80.20927
2022-12-28T14:09:54.385Z,82.39877
2022-12-28T14:14:56.095Z,82.69482
2022-12-28T14:19:57.866Z,81.74925
2022-12-28T14:24:59.564Z,81.09194
2022-12-28T14:30:01.458Z,81.51993
2022-12-28T14:35:03.315Z,80.60323
2022-12-28T14:40:04.974Z,80.19008
2022-12-28T14:45:06.929Z,79.82726
2022-12-28T14:50:08.599Z,82.00588
2022-12-28T14:55:10.246Z,79.32446
2022-12-28T15:00:12.091Z,81.84259
2022-12-28T15:05:13.912Z,80.54484
2022-12-28T15:10:15.555Z,81.32326
2022-12-28T15:15:19.120Z,81.03589
2022-12-28T15:20:20.785Z,80.23978
2022-12-28T15:25:22.443Z,80.69503
2022-12-28T15:30:28.809Z,80.76304
2022-12-28T15:35:30.917Z,81.32834
2022-12-28T15:40:32.566Z,81.14506
2022-12-28T15:45:34.299Z,80.86817
2022-12-28T15:50:35.913Z,82.09891
2022-12-28T15:55:37.522Z,80.83235
2022-12-28T16:00:44.189Z,81.77527
2022-12-28T16:05:49.111Z,81.52658
2022-12-28T16:10:50.811Z,80.52151
2022-12-28T16:15:52.504Z,81.0159
2022-12-28T16:20:54.171Z,80.29903
2022-12-28T16:25:55.793Z,79.84578
2022-12-28T16:30:57.393Z,80.31981
2022-12-28T16:35:59.960Z,79.62227
2022-12-28T16:41:01.772Z,80.92113
2022-12-28T16:46:03.488Z,80.03449
2022-12-28T16:51:05.150Z,80.07112
2022-12-28T16:56:06.852Z,80.01726
2022-12-28T17:01:08.799Z,79.06143
2022-12-28T17:06:10.549Z,79.90794
2022-12-28T17:11:12.204Z,80.43528
2022-12-28T17:16:14.080Z,81.40276
2022-12-28T17:21:15.740Z,80.34291
2022-12-28T17:26:17.403Z,79.10791
2022-12-28T17:31:19.178Z,81.90634
2022-12-28T17:36:20.858Z,79.55051
2022-12-28T17:41:22.486Z,80.50365
2022-12-28T17:46:24.378Z,85.37592
2022-12-28T17:51:26.036Z,86.89338
2022-12-28T17:56:27.757Z,85.76091
2022-12-28T18:01:29.613Z,88.86095
2022-12-28T18:06:31.324Z,88.79735
2022-12-28T18:11:32.953Z,84.65278
2022-12-28T18:16:34.721Z,81.3388
2022-12-28T18:21:36.486Z,81.45703
2022-12-28T18:26:38.115Z,83.53248
2022-12-28T18:31:39.842Z,81.60787
2022-12-28T18:36:41.533Z,77.77023
2022-12-28T18:41:43.250Z,78.75466
2022-12-28T18:46:44.964Z,77.90436
2022-12-28T18:51:46.721Z,81.28759
2022-12-28T18:56:48.347Z,80.75541
2022-12-28T19:02:07.699Z,81.35092
2022-12-28T19:07:10.066Z,84.38854
2022-12-28T19:12:11.719Z,83.69081
2022-12-28T19:17:13.335Z,82.65568
2022-12-28T19:22:15.082Z,81.92312
2022-12-28T19:27:16.708Z,82.95703
2022-12-28T19:32:18.322Z,81.4028
2022-12-28T19:37:19.898Z,81.10393
2022-12-28T19:42:21.561Z,79.88008
2022-12-28T19:47:23.182Z,80.72467
2022-12-28T19:52:24.926Z,80.10623
2022-12-28T19:57:26.881Z,79.68014
2022-12-28T20:02:28.655Z,80.2578
2022-12-28T20:07:30.408Z,79.62453
2022-12-28T20:12:32.081Z,78.95538
2022-12-28T20:17:33.795Z,80.11306
2022-12-28T20:22:35.500Z,80.46722
2022-12-28T20:27:37.206Z,80.85494
2022-12-28T20:32:44.554Z,80.4296
2022-12-28T20:37:46.692Z,79.89676
2022-12-28T20:42:48.357Z,79.36982
2022-12-28T20:47:50.074Z,78.68001
2022-12-28T20:52:51.690Z,78.43974
2022-12-28T20:57:53.432Z,77.93663
2022-12-28T21:02:55.061Z,76.54154
2022-12-28T21:07:56.772Z,75.95678
2022-12-28T21:12:58.435Z,75.90654
2022-12-28T21:18:00.133Z,76.51558
2022-12-28T21:23:01.780Z,77.73999
2022-12-28T21:28:03.365Z,78.11577
2022-12-28T21:33:05.022Z,78.0736
2022-12-28T21:38:06.657Z,77.739
2022-12-28T21:43:08.288Z,78.74297
2022-12-28T21:48:09.955Z,79.28899
2022-12-28T21:53:11.849Z,78.91506
2022-12-28T21:58:13.807Z,77.10146
2022-12-28T22:03:15.576Z,77.97569
2022-12-28T22:08:17.307Z,79.05851
2022-12-28T22:13:19.166Z,78.71595
2022-12-28T22:18:52.699Z,78.10526
2022-12-28T22:24:03.054Z,78.38829
2022-12-28T22:29:04.899Z,77.6128
2022-12-28T22:34:07.281Z,76.70035
2022-12-28T22:39:09.269Z,77.47037
2022-12-28T22:44:10.959Z,77.49648
2022-12-28T22:49:12.681Z,76.55838
2022-12-28T22:54:15.081Z,78.07567
2022-12-28T22:59:16.778Z,77.72288
2022-12-28T23:04:18.383Z,76.35572
2022-12-28T23:09:20.028Z,77.06891
2022-12-28T23:14:21.747Z,74.0779
2022-12-28T23:19:23.736Z,72.62209
2022-12-28T23:24:25.416Z,70.9202
2022-12-28T23:29:30.784Z,72.52585
2022-12-28T23:34:32.621Z,73.8794
2022-12-28T23:39:34.399Z,77.73745
2022-12-28T23:44:36.002Z,79.99928
2022-12-28T23:49:37.686Z,79.08455
2022-12-28T23:54:39.392Z,79.71521
2022-12-28T23:59:41.061Z,79.31507
